sensor_id;sensor_type;location;lat;lon;timestamp;pressure;altitude;pressure_sealevel;temperature;humidity
59009;BME280;44794;42.652;23.318;2023-03-12T00:01:26;93679.88;;;2.25;74.15
59009;BME280;44794;42.652;23.318;2023-03-12T00:03:52;93685.19;;;2.22;74.40
59009;BME280;44794;42.652;23.318;2023-03-12T00:06:19;93674.19;;;2.21;74.79
59009;BME280;44794;42.652;23.318;2023-03-12T00:08:45;93680.97;;;2.22;75.04
59009;BME280;44794;42.652;23.318;2023-03-12T00:11:13;93683.69;;;2.19;75.28
59009;BME280;44794;42.652;23.318;2023-03-12T00:13:41;93685.94;;;2.09;75.82
59009;BME280;44794;42.652;23.318;2023-03-12T00:16:10;93688.41;;;2.11;76.06
59009;BME280;44794;42.652;23.318;2023-03-12T00:18:35;93697.84;;;2.10;75.86
59009;BME280;44794;42.652;23.318;2023-03-12T00:21:01;93709.88;;;2.08;76.10
59009;BME280;44794;42.652;23.318;2023-03-12T00:23:27;93711.53;;;2.09;75.86
59009;BME280;44794;42.652;23.318;2023-03-12T00:25:53;93720.38;;;2.04;75.00
59009;BME280;44794;42.652;23.318;2023-03-12T00:28:18;93722.94;;;2.04;75.21
59009;BME280;44794;42.652;23.318;2023-03-12T00:30:44;93720.72;;;1.98;75.94
59009;BME280;44794;42.652;23.318;2023-03-12T00:33:11;93730.22;;;1.96;75.61
59009;BME280;44794;42.652;23.318;2023-03-12T00:35:37;93732.88;;;1.94;75.27
59009;BME280;44794;42.652;23.318;2023-03-12T00:38:03;93731.81;;;1.98;75.00
59009;BME280;44794;42.652;23.318;2023-03-12T00:40:29;93732.78;;;1.96;75.52
59009;BME280;44794;42.652;23.318;2023-03-12T00:42:54;93729.91;;;1.86;74.97
59009;BME280;44794;42.652;23.318;2023-03-12T00:45:20;93742.28;;;1.94;75.01
59009;BME280;44794;42.652;23.318;2023-03-12T00:47:45;93720.50;;;1.87;75.17
59009;BME280;44794;42.652;23.318;2023-03-12T00:50:10;93722.16;;;1.88;74.77
59009;BME280;44794;42.652;23.318;2023-03-12T00:52:36;93723.72;;;1.90;75.07
59009;BME280;44794;42.652;23.318;2023-03-12T00:55:01;93715.38;;;1.87;74.38
59009;BME280;44794;42.652;23.318;2023-03-12T00:57:27;93719.75;;;1.85;74.58
59009;BME280;44794;42.652;23.318;2023-03-12T00:59:52;93718.84;;;1.86;74.88
59009;BME280;44794;42.652;23.318;2023-03-12T01:02:18;93722.16;;;1.88;75.42
59009;BME280;44794;42.652;23.318;2023-03-12T01:04:43;93715.63;;;1.82;76.05
59009;BME280;44794;42.652;23.318;2023-03-12T01:07:08;93713.56;;;1.73;76.42
59009;BME280;44794;42.652;23.318;2023-03-12T01:09:34;93725.56;;;1.73;76.49
59009;BME280;44794;42.652;23.318;2023-03-12T01:11:59;93732.97;;;1.62;76.83
59009;BME280;44794;42.652;23.318;2023-03-12T01:14:24;93729.34;;;1.66;76.95
59009;BME280;44794;42.652;23.318;2023-03-12T01:16:50;93738.81;;;1.64;77.48
59009;BME280;44794;42.652;23.318;2023-03-12T01:19:15;93743.13;;;1.63;77.73
59009;BME280;44794;42.652;23.318;2023-03-12T01:21:41;93748.56;;;1.57;78.21
59009;BME280;44794;42.652;23.318;2023-03-12T01:24:06;93746.31;;;1.51;78.20
59009;BME280;44794;42.652;23.318;2023-03-12T01:26:32;93749.53;;;1.55;78.47
59009;BME280;44794;42.652;23.318;2023-03-12T01:28:57;93750.28;;;1.57;79.14
59009;BME280;44794;42.652;23.318;2023-03-12T01:31:23;93744.59;;;1.52;79.27
59009;BME280;44794;42.652;23.318;2023-03-12T01:33:50;93745.66;;;1.48;79.65
59009;BME280;44794;42.652;23.318;2023-03-12T01:36:21;93738.16;;;1.45;79.66
59009;BME280;44794;42.652;23.318;2023-03-12T01:38:49;93741.28;;;1.50;79.85
59009;BME280;44794;42.652;23.318;2023-03-12T01:41:15;93734.72;;;1.46;80.17
59009;BME280;44794;42.652;23.318;2023-03-12T01:43:41;93737.97;;;1.48;79.97
59009;BME280;44794;42.652;23.318;2023-03-12T01:52:00;93742.94;;;1.51;78.82
59009;BME280;44794;42.652;23.318;2023-03-12T01:54:44;93752.03;;;1.56;77.74
59009;BME280;44794;42.652;23.318;2023-03-12T01:57:18;93753.00;;;1.54;78.09
59009;BME280;44794;42.652;23.318;2023-03-12T01:59:53;93754.00;;;1.51;78.16
59009;BME280;44794;42.652;23.318;2023-03-12T02:02:21;93751.53;;;1.50;78.16
59009;BME280;44794;42.652;23.318;2023-03-12T02:04:58;93748.41;;;1.45;78.07
59009;BME280;44794;42.652;23.318;2023-03-12T02:07:28;93746.75;;;1.44;78.37
59009;BME280;44794;42.652;23.318;2023-03-12T02:09:53;93749.69;;;1.37;77.74
59009;BME280;44794;42.652;23.318;2023-03-12T02:12:19;93745.28;;;1.55;76.17
59009;BME280;44794;42.652;23.318;2023-03-12T02:14:44;93736.84;;;1.53;76.23
59009;BME280;44794;42.652;23.318;2023-03-12T02:17:10;93744.19;;;1.59;75.75
59009;BME280;44794;42.652;23.318;2023-03-12T02:19:59;93742.63;;;1.57;75.77
59009;BME280;44794;42.652;23.318;2023-03-12T02:22:33;93745.41;;;1.52;75.33
59009;BME280;44794;42.652;23.318;2023-03-12T02:25:17;93753.00;;;1.54;75.36
59009;BME280;44794;42.652;23.318;2023-03-12T02:27:46;93770.34;;;1.49;75.86
59009;BME280;44794;42.652;23.318;2023-03-12T02:30:12;93762.66;;;1.49;75.07
59009;BME280;44794;42.652;23.318;2023-03-12T02:32:44;93764.00;;;1.56;75.07
59009;BME280;44794;42.652;23.318;2023-03-12T02:35:12;93773.75;;;1.49;75.29
59009;BME280;44794;42.652;23.318;2023-03-12T02:37:52;93763.13;;;1.40;75.33
59009;BME280;44794;42.652;23.318;2023-03-12T02:40:41;93777.16;;;1.33;75.56
59009;BME280;44794;42.652;23.318;2023-03-12T02:43:09;93774.44;;;1.36;75.99
59009;BME280;44794;42.652;23.318;2023-03-12T02:45:35;93783.53;;;1.42;75.42
59009;BME280;44794;42.652;23.318;2023-03-12T02:48:02;93781.47;;;1.48;75.53
59009;BME280;44794;42.652;23.318;2023-03-12T02:50:28;93794.34;;;1.47;75.78
59009;BME280;44794;42.652;23.318;2023-03-12T02:52:53;93783.31;;;1.46;76.08
59009;BME280;44794;42.652;23.318;2023-03-12T02:55:19;93778.34;;;1.43;76.44
59009;BME280;44794;42.652;23.318;2023-03-12T02:57:44;93774.44;;;1.36;76.76
59009;BME280;44794;42.652;23.318;2023-03-12T03:00:11;93781.22;;;1.37;76.80
59009;BME280;44794;42.652;23.318;2023-03-12T03:02:38;93766.63;;;1.39;76.53
59009;BME280;44794;42.652;23.318;2023-03-12T03:05:03;93764.06;;;1.39;77.24
59009;BME280;44794;42.652;23.318;2023-03-12T03:07:29;93756.88;;;1.30;76.28
59009;BME280;44794;42.652;23.318;2023-03-12T03:09:54;93751.75;;;1.30;75.65
59009;BME280;44794;42.652;23.318;2023-03-12T03:12:19;93761.09;;;1.31;75.20
59009;BME280;44794;42.652;23.318;2023-03-12T03:14:47;93759.25;;;1.33;73.98
59009;BME280;44794;42.652;23.318;2023-03-12T03:17:12;93760.09;;;1.34;73.14
59009;BME280;44794;42.652;23.318;2023-03-12T03:19:38;93752.50;;;1.32;72.86
59009;BME280;44794;42.652;23.318;2023-03-12T03:22:03;93763.41;;;1.36;72.00
59009;BME280;44794;42.652;23.318;2023-03-12T03:24:29;93756.44;;;1.38;72.19
59009;BME280;44794;42.652;23.318;2023-03-12T03:26:54;93762.78;;;1.31;72.18
59009;BME280;44794;42.652;23.318;2023-03-12T03:29:20;93769.31;;;1.21;71.84
59009;BME280;44794;42.652;23.318;2023-03-12T03:31:45;93772.34;;;1.27;70.02
59009;BME280;44794;42.652;23.318;2023-03-12T03:34:11;93775.56;;;1.31;69.86
59009;BME280;44794;42.652;23.318;2023-03-12T03:36:36;93789.13;;;1.33;68.95
59009;BME280;44794;42.652;23.318;2023-03-12T03:39:02;93802.34;;;1.41;67.59
59009;BME280;44794;42.652;23.318;2023-03-12T03:41:29;93804.13;;;1.39;67.44
59009;BME280;44794;42.652;23.318;2023-03-12T03:43:57;93788.13;;;1.35;67.31
59009;BME280;44794;42.652;23.318;2023-03-12T03:46:23;93803.31;;;1.38;67.23
59009;BME280;44794;42.652;23.318;2023-03-12T03:48:48;93797.38;;;1.38;67.44
59009;BME280;44794;42.652;23.318;2023-03-12T03:51:15;93789.22;;;1.31;66.67
59009;BME280;44794;42.652;23.318;2023-03-12T03:53:41;93789.94;;;1.33;67.20
59009;BME280;44794;42.652;23.318;2023-03-12T03:56:12;93803.66;;;1.32;65.90
59009;BME280;44794;42.652;23.318;2023-03-12T03:58:38;93802.97;;;1.29;65.74
59009;BME280;44794;42.652;23.318;2023-03-12T04:01:03;93810.56;;;1.30;64.91
59009;BME280;44794;42.652;23.318;2023-03-12T04:03:30;93815.69;;;1.30;65.51
59009;BME280;44794;42.652;23.318;2023-03-12T04:05:58;93817.66;;;1.25;66.19
59009;BME280;44794;42.652;23.318;2023-03-12T04:08:24;93820.94;;;1.27;66.11
59009;BME280;44794;42.652;23.318;2023-03-12T04:10:50;93822.91;;;1.22;65.05
59009;BME280;44794;42.652;23.318;2023-03-12T04:13:15;93833.13;;;1.22;64.62
59009;BME280;44794;42.652;23.318;2023-03-12T04:15:49;93835.78;;;1.21;64.63
59009;BME280;44794;42.652;23.318;2023-03-12T04:18:15;93854.34;;;1.07;64.68
59009;BME280;44794;42.652;23.318;2023-03-12T04:20:42;93845.78;;;1.08;64.67
59009;BME280;44794;42.652;23.318;2023-03-12T04:23:07;93856.00;;;1.08;63.33
59009;BME280;44794;42.652;23.318;2023-03-12T04:25:33;93855.91;;;1.10;62.76
59009;BME280;44794;42.652;23.318;2023-03-12T04:27:58;93857.66;;;1.09;63.90
59009;BME280;44794;42.652;23.318;2023-03-12T04:30:25;93855.63;;;0.99;63.90
59009;BME280;44794;42.652;23.318;2023-03-12T04:32:52;93857.13;;;1.03;64.54
59009;BME280;44794;42.652;23.318;2023-03-12T04:35:17;93857.44;;;0.97;64.44
59009;BME280;44794;42.652;23.318;2023-03-12T04:37:43;93868.50;;;0.97;65.01
59009;BME280;44794;42.652;23.318;2023-03-12T04:40:09;93873.75;;;0.94;64.67
59009;BME280;44794;42.652;23.318;2023-03-12T04:42:35;93882.19;;;0.96;63.79
59009;BME280;44794;42.652;23.318;2023-03-12T04:45:04;93891.50;;;0.97;64.52
59009;BME280;44794;42.652;23.318;2023-03-12T04:47:31;93881.56;;;0.91;64.82
59009;BME280;44794;42.652;23.318;2023-03-12T04:49:57;93882.09;;;0.98;64.46
59009;BME280;44794;42.652;23.318;2023-03-12T04:52:23;93881.13;;;1.00;63.72
59009;BME280;44794;42.652;23.318;2023-03-12T04:54:48;93890.34;;;1.03;63.50
59009;BME280;44794;42.652;23.318;2023-03-12T04:57:15;93889.38;;;1.05;61.83
59009;BME280;44794;42.652;23.318;2023-03-12T04:59:40;93899.47;;;1.08;60.27
59009;BME280;44794;42.652;23.318;2023-03-12T05:02:06;93907.38;;;1.21;58.20
59009;BME280;44794;42.652;23.318;2023-03-12T05:04:31;93914.19;;;1.20;57.60
59009;BME280;44794;42.652;23.318;2023-03-12T05:06:57;93913.88;;;1.26;57.18
59009;BME280;44794;42.652;23.318;2023-03-12T05:09:22;93918.03;;;1.29;55.57
59009;BME280;44794;42.652;23.318;2023-03-12T05:11:47;93934.44;;;1.42;55.29
59009;BME280;44794;42.652;23.318;2023-03-12T05:14:13;93927.13;;;1.51;53.90
59009;BME280;44794;42.652;23.318;2023-03-12T05:16:38;93926.81;;;1.57;53.36
59009;BME280;44794;42.652;23.318;2023-03-12T05:19:04;93934.16;;;1.63;53.33
59009;BME280;44794;42.652;23.318;2023-03-12T05:21:30;93939.97;;;1.66;52.79
59009;BME280;44794;42.652;23.318;2023-03-12T05:23:55;93939.31;;;1.78;52.18
59009;BME280;44794;42.652;23.318;2023-03-12T05:26:27;93953.56;;;1.84;52.84
59009;BME280;44794;42.652;23.318;2023-03-12T05:28:53;93943.53;;;1.79;53.05
59009;BME280;44794;42.652;23.318;2023-03-12T05:31:19;93959.56;;;1.83;54.04
59009;BME280;44794;42.652;23.318;2023-03-12T05:33:45;93952.66;;;1.85;52.75
59009;BME280;44794;42.652;23.318;2023-03-12T05:36:11;93960.91;;;1.90;53.42
59009;BME280;44794;42.652;23.318;2023-03-12T05:38:37;93964.38;;;1.89;53.39
59009;BME280;44794;42.652;23.318;2023-03-12T05:41:03;93961.47;;;2.12;53.76
59009;BME280;44794;42.652;23.318;2023-03-12T05:43:29;93975.75;;;2.63;52.68
59009;BME280;44794;42.652;23.318;2023-03-12T05:46:01;93988.22;;;3.74;49.38
59009;BME280;44794;42.652;23.318;2023-03-12T05:48:27;93990.81;;;4.45;47.78
59009;BME280;44794;42.652;23.318;2023-03-12T05:50:53;93988.78;;;4.36;46.85
59009;BME280;44794;42.652;23.318;2023-03-12T05:53:18;93989.03;;;4.73;46.53
59009;BME280;44794;42.652;23.318;2023-03-12T05:55:44;93997.13;;;5.21;45.54
59009;BME280;44794;42.652;23.318;2023-03-12T05:58:09;93995.25;;;5.23;45.05
59009;BME280;44794;42.652;23.318;2023-03-12T06:00:35;94008.53;;;5.04;46.03
59009;BME280;44794;42.652;23.318;2023-03-12T06:03:03;94016.91;;;5.07;45.36
59009;BME280;44794;42.652;23.318;2023-03-12T06:05:31;94013.91;;;4.87;45.47
59009;BME280;44794;42.652;23.318;2023-03-12T06:07:57;94021.94;;;5.49;44.83
59009;BME280;44794;42.652;23.318;2023-03-12T06:10:22;94012.78;;;6.22;43.22
59009;BME280;44794;42.652;23.318;2023-03-12T06:12:48;94018.34;;;6.29;43.51
59009;BME280;44794;42.652;23.318;2023-03-12T06:15:13;94028.75;;;6.52;42.72
59009;BME280;44794;42.652;23.318;2023-03-12T06:17:39;94022.59;;;6.55;43.56
59009;BME280;44794;42.652;23.318;2023-03-12T06:20:05;94028.44;;;6.57;44.02
59009;BME280;44794;42.652;23.318;2023-03-12T06:22:30;94029.38;;;6.68;44.36
59009;BME280;44794;42.652;23.318;2023-03-12T06:24:56;94036.69;;;6.86;43.85
59009;BME280;44794;42.652;23.318;2023-03-12T06:27:21;94029.13;;;5.04;47.57
59009;BME280;44794;42.652;23.318;2023-03-12T06:29:47;94023.66;;;4.40;50.53
59009;BME280;44794;42.652;23.318;2023-03-12T06:32:13;94020.19;;;3.55;53.54
59009;BME280;44794;42.652;23.318;2023-03-12T06:34:38;94044.06;;;3.26;54.50
59009;BME280;44794;42.652;23.318;2023-03-12T06:37:04;94038.34;;;3.21;55.08
59009;BME280;44794;42.652;23.318;2023-03-12T06:39:29;94029.16;;;3.17;56.49
59009;BME280;44794;42.652;23.318;2023-03-12T06:41:55;94033.22;;;2.75;59.13
59009;BME280;44794;42.652;23.318;2023-03-12T06:44:20;94039.31;;;2.72;60.08
59009;BME280;44794;42.652;23.318;2023-03-12T06:46:46;94039.41;;;2.86;60.48
59009;BME280;44794;42.652;23.318;2023-03-12T06:49:11;94036.59;;;2.75;61.21
59009;BME280;44794;42.652;23.318;2023-03-12T06:51:37;94042.41;;;2.79;57.96
59009;BME280;44794;42.652;23.318;2023-03-12T06:54:02;94043.22;;;2.79;60.11
59009;BME280;44794;42.652;23.318;2023-03-12T06:56:29;94043.69;;;2.55;60.08
59009;BME280;44794;42.652;23.318;2023-03-12T06:58:54;94032.09;;;2.48;61.06
59009;BME280;44794;42.652;23.318;2023-03-12T07:01:20;94040.94;;;2.42;62.31
59009;BME280;44794;42.652;23.318;2023-03-12T07:03:45;94047.88;;;2.40;62.43
59009;BME280;44794;42.652;23.318;2023-03-12T07:06:16;94055.34;;;2.28;62.66
59009;BME280;44794;42.652;23.318;2023-03-12T07:08:43;94047.28;;;2.35;63.30
59009;BME280;44794;42.652;23.318;2023-03-12T07:11:09;94049.25;;;2.30;63.10
59009;BME280;44794;42.652;23.318;2023-03-12T07:13:34;94072.59;;;2.24;62.42
59009;BME280;44794;42.652;23.318;2023-03-12T07:16:01;94064.78;;;2.27;60.76
59009;BME280;44794;42.652;23.318;2023-03-12T07:18:27;94086.03;;;2.13;60.07
59009;BME280;44794;42.652;23.318;2023-03-12T07:20:52;94074.72;;;2.17;60.36
59009;BME280;44794;42.652;23.318;2023-03-12T07:23:18;94065.09;;;2.05;59.66
59009;BME280;44794;42.652;23.318;2023-03-12T07:25:43;94088.59;;;2.13;59.56
59009;BME280;44794;42.652;23.318;2023-03-12T07:28:10;94078.63;;;2.23;59.61
59009;BME280;44794;42.652;23.318;2023-03-12T07:30:36;94083.94;;;2.21;60.03
59009;BME280;44794;42.652;23.318;2023-03-12T07:33:04;94079.94;;;2.32;59.85
59009;BME280;44794;42.652;23.318;2023-03-12T07:35:30;94099.38;;;2.19;59.96
59009;BME280;44794;42.652;23.318;2023-03-12T07:37:57;94104.09;;;2.26;60.07
59009;BME280;44794;42.652;23.318;2023-03-12T07:40:23;94088.63;;;2.45;60.10
59009;BME280;44794;42.652;23.318;2023-03-12T07:42:49;94095.25;;;2.49;59.33
59009;BME280;44794;42.652;23.318;2023-03-12T07:45:15;94105.56;;;2.64;58.22
59009;BME280;44794;42.652;23.318;2023-03-12T07:47:40;94108.28;;;2.44;58.39
59009;BME280;44794;42.652;23.318;2023-03-12T07:50:06;94124.53;;;2.60;58.01
59009;BME280;44794;42.652;23.318;2023-03-12T07:52:31;94086.63;;;2.67;55.41
59009;BME280;44794;42.652;23.318;2023-03-12T07:54:57;94098.59;;;2.66;54.97
59009;BME280;44794;42.652;23.318;2023-03-12T07:57:23;94111.03;;;2.74;55.82
59009;BME280;44794;42.652;23.318;2023-03-12T07:59:48;94114.19;;;2.94;55.09
59009;BME280;44794;42.652;23.318;2023-03-12T08:02:14;94119.31;;;2.79;53.07
59009;BME280;44794;42.652;23.318;2023-03-12T08:04:39;94123.63;;;2.78;52.61
59009;BME280;44794;42.652;23.318;2023-03-12T08:07:05;94123.63;;;2.78;52.38
59009;BME280;44794;42.652;23.318;2023-03-12T08:09:31;94147.78;;;2.57;51.11
59009;BME280;44794;42.652;23.318;2023-03-12T08:11:57;94132.00;;;2.65;52.02
59009;BME280;44794;42.652;23.318;2023-03-12T08:14:22;94137.81;;;2.68;52.39
59009;BME280;44794;42.652;23.318;2023-03-12T08:16:48;94134.25;;;3.03;52.59
59009;BME280;44794;42.652;23.318;2023-03-12T08:19:14;94156.44;;;2.87;50.88
59009;BME280;44794;42.652;23.318;2023-03-12T08:21:39;94157.31;;;2.71;51.86
59009;BME280;44794;42.652;23.318;2023-03-12T08:24:04;94151.19;;;2.73;52.14
59009;BME280;44794;42.652;23.318;2023-03-12T08:26:30;94173.19;;;2.94;52.48
59009;BME280;44794;42.652;23.318;2023-03-12T08:28:55;94169.31;;;3.02;52.89
59009;BME280;44794;42.652;23.318;2023-03-12T08:31:21;94178.13;;;2.65;50.78
59009;BME280;44794;42.652;23.318;2023-03-12T08:33:47;94172.16;;;2.81;51.13
59009;BME280;44794;42.652;23.318;2023-03-12T08:36:12;94170.69;;;2.93;51.56
59009;BME280;44794;42.652;23.318;2023-03-12T08:38:38;94177.56;;;2.92;51.61
59009;BME280;44794;42.652;23.318;2023-03-12T08:41:03;94210.53;;;2.83;51.31
59009;BME280;44794;42.652;23.318;2023-03-12T08:43:30;94193.97;;;2.73;51.61
59009;BME280;44794;42.652;23.318;2023-03-12T08:46:00;94202.78;;;2.84;52.15
59009;BME280;44794;42.652;23.318;2023-03-12T08:48:27;94192.06;;;2.76;51.58
59009;BME280;44794;42.652;23.318;2023-03-12T08:50:57;94198.00;;;2.94;52.16
59009;BME280;44794;42.652;23.318;2023-03-12T08:53:24;94201.84;;;3.17;51.97
59009;BME280;44794;42.652;23.318;2023-03-12T08:55:53;94192.78;;;3.43;52.10
59009;BME280;44794;42.652;23.318;2023-03-12T08:58:20;94207.28;;;3.44;50.62
59009;BME280;44794;42.652;23.318;2023-03-12T09:00:45;94201.84;;;3.17;50.76
59009;BME280;44794;42.652;23.318;2023-03-12T09:03:11;94216.75;;;3.11;50.95
59009;BME280;44794;42.652;23.318;2023-03-12T09:05:39;94193.88;;;3.23;50.75
59009;BME280;44794;42.652;23.318;2023-03-12T09:08:05;94199.94;;;3.21;50.63
59009;BME280;44794;42.652;23.318;2023-03-12T09:10:30;94201.81;;;3.34;49.67
59009;BME280;44794;42.652;23.318;2023-03-12T09:12:56;94189.88;;;3.49;50.11
59009;BME280;44794;42.652;23.318;2023-03-12T09:15:21;94216.38;;;3.34;49.36
59009;BME280;44794;42.652;23.318;2023-03-12T09:17:46;94209.50;;;3.02;49.40
59009;BME280;44794;42.652;23.318;2023-03-12T09:20:12;94197.22;;;3.08;50.92
59009;BME280;44794;42.652;23.318;2023-03-12T09:22:41;94191.78;;;3.45;50.48
59009;BME280;44794;42.652;23.318;2023-03-12T09:25:08;94201.81;;;3.50;50.20
59009;BME280;44794;42.652;23.318;2023-03-12T09:27:38;94201.34;;;3.59;49.95
59009;BME280;44794;42.652;23.318;2023-03-12T09:30:05;94170.88;;;3.37;50.21
59009;BME280;44794;42.652;23.318;2023-03-12T09:32:32;94183.94;;;3.48;50.71
59009;BME280;44794;42.652;23.318;2023-03-12T09:34:58;94183.78;;;3.67;50.47
59009;BME280;44794;42.652;23.318;2023-03-12T09:37:24;94202.66;;;3.81;49.76
59009;BME280;44794;42.652;23.318;2023-03-12T09:39:50;94200.66;;;4.01;49.31
59009;BME280;44794;42.652;23.318;2023-03-12T09:42:28;94196.09;;;4.06;49.74
59009;BME280;44794;42.652;23.318;2023-03-12T09:44:56;94202.19;;;4.19;48.73
59009;BME280;44794;42.652;23.318;2023-03-12T09:47:29;94190.31;;;4.32;48.89
59009;BME280;44794;42.652;23.318;2023-03-12T09:50:20;94199.53;;;4.36;49.62
59009;BME280;44794;42.652;23.318;2023-03-12T09:52:49;94196.66;;;4.27;49.12
59009;BME280;44794;42.652;23.318;2023-03-12T09:55:19;94194.00;;;4.28;48.64
59009;BME280;44794;42.652;23.318;2023-03-12T09:57:47;94193.38;;;4.39;49.36
59009;BME280;44794;42.652;23.318;2023-03-12T10:00:17;94209.06;;;4.34;48.20
59009;BME280;44794;42.652;23.318;2023-03-12T10:05:43;94190.63;;;4.12;48.15
59009;BME280;44794;42.652;23.318;2023-03-12T10:08:19;94199.22;;;4.11;48.16
59009;BME280;44794;42.652;23.318;2023-03-12T10:11:09;94202.59;;;4.27;47.34
59009;BME280;44794;42.652;23.318;2023-03-12T10:19:20;94190.50;;;4.58;48.01
59009;BME280;44794;42.652;23.318;2023-03-12T10:27:12;94179.59;;;4.69;47.00
59009;BME280;44794;42.652;23.318;2023-03-12T10:29:41;94180.47;;;4.54;46.52
59009;BME280;44794;42.652;23.318;2023-03-12T10:32:22;94187.69;;;4.77;46.28
59009;BME280;44794;42.652;23.318;2023-03-12T10:34:52;94208.00;;;4.81;46.29
59009;BME280;44794;42.652;23.318;2023-03-12T10:37:23;94185.50;;;4.71;46.07
59009;BME280;44794;42.652;23.318;2023-03-12T10:39:50;94189.88;;;4.69;46.48
59009;BME280;44794;42.652;23.318;2023-03-12T10:42:20;94196.53;;;4.87;46.47
59009;BME280;44794;42.652;23.318;2023-03-12T10:44:59;94195.78;;;4.71;46.35
59009;BME280;44794;42.652;23.318;2023-03-12T10:47:42;94195.75;;;4.57;46.13
59009;BME280;44794;42.652;23.318;2023-03-12T10:52:40;94189.31;;;4.64;44.83
59009;BME280;44794;42.652;23.318;2023-03-12T10:55:18;94192.88;;;5.05;45.79
59009;BME280;44794;42.652;23.318;2023-03-12T10:57:46;94183.78;;;4.99;44.80
59009;BME280;44794;42.652;23.318;2023-03-12T11:00:23;94178.88;;;4.95;44.75
59009;BME280;44794;42.652;23.318;2023-03-12T11:03:06;94192.88;;;5.05;44.93
59009;BME280;44794;42.652;23.318;2023-03-12T11:05:51;94177.00;;;5.12;45.42
59009;BME280;44794;42.652;23.318;2023-03-12T11:08:28;94184.63;;;5.27;44.87
59009;BME280;44794;42.652;23.318;2023-03-12T11:10:56;94170.56;;;5.47;45.96
59009;BME280;44794;42.652;23.318;2023-03-12T11:13:28;94170.44;;;5.48;44.47
59009;BME280;44794;42.652;23.318;2023-03-12T11:15:56;94159.59;;;5.57;44.35
59009;BME280;44794;42.652;23.318;2023-03-12T11:18:32;94181.66;;;5.47;43.68
59009;BME280;44794;42.652;23.318;2023-03-12T11:23:40;94173.94;;;5.47;45.31
59009;BME280;44794;42.652;23.318;2023-03-12T11:26:20;94168.63;;;5.50;43.91
59009;BME280;44794;42.652;23.318;2023-03-12T11:28:51;94166.22;;;5.47;44.42
59009;BME280;44794;42.652;23.318;2023-03-12T11:31:22;94178.19;;;5.48;43.96
59009;BME280;44794;42.652;23.318;2023-03-12T11:33:50;94171.72;;;5.55;44.63
59009;BME280;44794;42.652;23.318;2023-03-12T11:36:34;94170.25;;;5.51;44.14
59009;BME280;44794;42.652;23.318;2023-03-12T11:42:22;94170.25;;;5.51;44.07
59009;BME280;44794;42.652;23.318;2023-03-12T11:45:01;94166.03;;;5.78;43.85
59009;BME280;44794;42.652;23.318;2023-03-12T11:47:49;94164.69;;;5.99;41.81
59009;BME280;44794;42.652;23.318;2023-03-12T11:50:41;94159.66;;;6.10;42.01
59009;BME280;44794;42.652;23.318;2023-03-12T12:01:20;94154.50;;;6.49;41.12
59009;BME280;44794;42.652;23.318;2023-03-12T12:12:06;94153.84;;;6.71;41.84
59009;BME280;44794;42.652;23.318;2023-03-12T12:14:44;94167.19;;;7.03;40.66
59009;BME280;44794;42.652;23.318;2023-03-12T12:28:10;94167.00;;;7.79;40.30
59009;BME280;44794;42.652;23.318;2023-03-12T12:31:12;94166.06;;;7.07;41.32
59009;BME280;44794;42.652;23.318;2023-03-12T12:36:20;94149.63;;;6.95;41.07
59009;BME280;44794;42.652;23.318;2023-03-12T12:38:57;94169.19;;;6.22;41.85
59009;BME280;44794;42.652;23.318;2023-03-12T12:41:29;94166.75;;;6.33;42.11
59009;BME280;44794;42.652;23.318;2023-03-12T12:44:00;94161.47;;;6.61;41.93
59009;BME280;44794;42.652;23.318;2023-03-12T12:46:39;94166.84;;;6.95;42.76
59009;BME280;44794;42.652;23.318;2023-03-12T12:49:23;94173.78;;;6.82;40.74
59009;BME280;44794;42.652;23.318;2023-03-12T12:51:54;94156.59;;;6.56;41.45
59009;BME280;44794;42.652;23.318;2023-03-12T12:56:53;94155.00;;;6.92;42.25
59009;BME280;44794;42.652;23.318;2023-03-12T13:01:57;94160.56;;;7.11;41.66
59009;BME280;44794;42.652;23.318;2023-03-12T13:04:36;94149.53;;;6.97;42.24
59009;BME280;44794;42.652;23.318;2023-03-12T13:07:03;94151.69;;;7.15;42.20
59009;BME280;44794;42.652;23.318;2023-03-12T13:09:50;94159.44;;;7.15;41.92
59009;BME280;44794;42.652;23.318;2023-03-12T13:12:40;94162.25;;;7.00;41.50
59009;BME280;44794;42.652;23.318;2023-03-12T13:15:39;94164.28;;;6.82;42.00
59009;BME280;44794;42.652;23.318;2023-03-12T13:18:08;94166.69;;;6.59;42.38
59009;BME280;44794;42.652;23.318;2023-03-12T13:25:56;94156.84;;;7.03;43.57
59009;BME280;44794;42.652;23.318;2023-03-12T13:30:58;94168.19;;;6.75;42.56
59009;BME280;44794;42.652;23.318;2023-03-12T13:33:43;94172.72;;;6.60;43.35
59009;BME280;44794;42.652;23.318;2023-03-12T13:41:35;94193.06;;;6.76;43.39
59009;BME280;44794;42.652;23.318;2023-03-12T13:46:46;94189.28;;;6.56;43.12
59009;BME280;44794;42.652;23.318;2023-03-12T13:49:14;94190.81;;;6.46;42.77
59009;BME280;44794;42.652;23.318;2023-03-12T13:51:51;94187.22;;;6.22;43.08
59009;BME280;44794;42.652;23.318;2023-03-12T13:54:19;94188.81;;;6.10;43.53
59009;BME280;44794;42.652;23.318;2023-03-12T13:57:24;94185.03;;;6.16;44.05
59009;BME280;44794;42.652;23.318;2023-03-12T13:59:52;94184.53;;;6.11;43.83
59009;BME280;44794;42.652;23.318;2023-03-12T14:02:24;94192.78;;;6.16;43.95
59009;BME280;44794;42.652;23.318;2023-03-12T14:04:51;94188.88;;;6.23;44.41
59009;BME280;44794;42.652;23.318;2023-03-12T14:18:34;94196.78;;;6.34;43.41
59009;BME280;44794;42.652;23.318;2023-03-12T14:21:08;94208.34;;;6.14;43.14
59009;BME280;44794;42.652;23.318;2023-03-12T14:23:37;94199.09;;;6.24;43.05
59009;BME280;44794;42.652;23.318;2023-03-12T14:26:04;94206.13;;;6.22;43.38
59009;BME280;44794;42.652;23.318;2023-03-12T14:28:37;94203.44;;;6.24;43.58
59009;BME280;44794;42.652;23.318;2023-03-12T14:31:16;94199.59;;;6.17;43.04
59009;BME280;44794;42.652;23.318;2023-03-12T14:36:23;94210.09;;;6.14;43.65
59009;BME280;44794;42.652;23.318;2023-03-12T14:38:57;94216.47;;;6.35;43.17
59009;BME280;44794;42.652;23.318;2023-03-12T14:41:28;94217.41;;;6.34;43.45